createdAt,value
2022-10-13T00:01:28.507Z,11.9
2022-10-13T00:04:28.461Z,11.9
2022-10-13T00:07:28.485Z,11.9
2022-10-13T00:10:28.469Z,11.9
2022-10-13T00:13:28.476Z,11.9
2022-10-13T00:16:28.473Z,11.9
2022-10-13T00:19:28.477Z,11.8
2022-10-13T00:22:28.476Z,11.9
2022-10-13T00:25:28.510Z,11.8
2022-10-13T00:28:28.515Z,11.8
2022-10-13T00:31:28.493Z,11.8
2022-10-13T00:34:28.500Z,11.8
2022-10-13T00:37:28.502Z,11.8
2022-10-13T00:40:28.509Z,11.8
2022-10-13T00:43:28.546Z,11.8
2022-10-13T00:46:28.518Z,11.8
2022-10-13T00:49:28.521Z,11.8
2022-10-13T00:52:28.537Z,11.8
2022-10-13T00:55:28.528Z,11.8
2022-10-13T00:58:28.540Z,11.8
2022-10-13T01:01:28.570Z,11.8
2022-10-13T01:04:28.548Z,11.8
2022-10-13T01:07:28.543Z,11.8
2022-10-13T01:10:28.547Z,11.8
2022-10-13T01:13:28.558Z,11.8
2022-10-13T01:16:28.553Z,11.8
2022-10-13T01:19:28.583Z,11.8
2022-10-13T01:22:28.566Z,11.8
2022-10-13T01:25:28.566Z,11.8
2022-10-13T01:28:28.609Z,11.8
2022-10-13T01:31:28.576Z,11.8
2022-10-13T01:34:28.579Z,11.8
2022-10-13T01:37:28.628Z,11.8
2022-10-13T01:40:28.583Z,11.8
2022-10-13T01:43:28.654Z,11.8
2022-10-13T01:46:28.593Z,11.8
2022-10-13T01:49:28.595Z,11.8
2022-10-13T01:52:28.607Z,11.8
2022-10-13T01:55:28.635Z,11.8
2022-10-13T01:58:28.628Z,11.8
2022-10-13T02:01:28.618Z,11.8
2022-10-13T02:04:28.624Z,11.8
2022-10-13T02:07:28.635Z,11.8
2022-10-13T02:10:28.630Z,11.8
2022-10-13T02:13:28.673Z,11.8
2022-10-13T02:16:28.642Z,11.8
2022-10-13T02:19:28.649Z,11.8
2022-10-13T02:22:28.650Z,11.8
2022-10-13T02:25:28.652Z,11.8
2022-10-13T02:28:28.703Z,11.8
2022-10-13T02:31:28.688Z,11.8
2022-10-13T02:34:28.660Z,11.8
2022-10-13T02:37:28.673Z,11.8
2022-10-13T02:40:28.674Z,11.8
2022-10-13T02:43:28.694Z,11.8
2022-10-13T02:46:28.692Z,11.8
2022-10-13T02:49:28.729Z,11.7
2022-10-13T02:52:28.696Z,11.7
2022-10-13T02:55:28.696Z,11.7
2022-10-13T02:58:28.720Z,11.7
2022-10-13T03:01:28.707Z,11.7
2022-10-13T03:04:28.722Z,11.7
2022-10-13T03:07:28.745Z,11.7
2022-10-13T03:10:28.721Z,11.7
2022-10-13T03:13:28.752Z,11.7
2022-10-13T03:16:28.729Z,11.7
2022-10-13T03:19:28.735Z,11.7
2022-10-13T03:22:28.750Z,11.7
2022-10-13T03:25:28.763Z,11.7
2022-10-13T03:28:28.826Z,11.7
2022-10-13T03:31:28.761Z,11.7
2022-10-13T03:34:28.756Z,11.7
2022-10-13T03:37:28.767Z,11.7
2022-10-13T03:40:28.771Z,11.7
2022-10-13T03:43:28.810Z,11.7
2022-10-13T03:46:28.780Z,11.7
2022-10-13T03:49:28.794Z,11.7
2022-10-13T03:52:28.787Z,11.7
2022-10-13T03:55:28.798Z,11.7
2022-10-13T03:58:28.830Z,11.7
2022-10-13T04:01:28.886Z,11.6
2022-10-13T04:04:28.806Z,11.6
2022-10-13T04:07:28.819Z,11.6
2022-10-13T04:10:28.820Z,11.6
2022-10-13T04:13:28.838Z,11.6
2022-10-13T04:16:28.830Z,11.6
2022-10-13T04:19:28.863Z,11.6
2022-10-13T04:22:28.850Z,11.6
2022-10-13T04:25:28.861Z,11.6
2022-10-13T04:28:28.931Z,11.6
2022-10-13T04:31:28.867Z,11.6
2022-10-13T04:34:28.875Z,11.6
2022-10-13T04:37:28.897Z,11.6
2022-10-13T04:40:28.881Z,11.6
2022-10-13T04:43:28.920Z,11.6
2022-10-13T04:46:28.890Z,11.6
2022-10-13T04:49:28.898Z,11.6
2022-10-13T04:52:28.902Z,11.6
2022-10-13T04:55:28.932Z,11.6
2022-10-13T04:58:28.944Z,11.6
2022-10-13T05:01:28.922Z,11.6
2022-10-13T05:04:28.942Z,11.6
2022-10-13T05:07:28.933Z,11.6
2022-10-13T05:10:32.563Z,11.6
2022-10-13T05:13:28.991Z,11.6
2022-10-13T05:16:28.958Z,11.6
2022-10-13T05:19:28.963Z,11.6
2022-10-13T05:22:28.964Z,11.6
2022-10-13T05:25:32.949Z,11.6
2022-10-13T05:28:29.007Z,11.6
2022-10-13T05:31:29.009Z,11.6
2022-10-13T05:34:28.990Z,11.6
2022-10-13T05:37:28.995Z,11.6
2022-10-13T05:40:29.001Z,11.6
2022-10-13T05:43:29.022Z,11.6
2022-10-13T05:46:29.021Z,11.6
2022-10-13T05:49:29.164Z,11.6
2022-10-13T05:52:29.033Z,11.6
2022-10-13T05:55:29.051Z,11.6
2022-10-13T05:58:29.062Z,11.6
2022-10-13T06:01:29.094Z,11.6
2022-10-13T06:04:29.064Z,11.5
2022-10-13T06:07:29.091Z,11.6
2022-10-13T06:10:29.067Z,11.6
2022-10-13T06:13:29.083Z,11.6
2022-10-13T06:16:29.083Z,11.6
2022-10-13T06:19:29.084Z,11.6
2022-10-13T06:22:29.101Z,11.5
2022-10-13T06:25:29.128Z,11.5
2022-10-13T06:28:29.168Z,11.6
2022-10-13T06:31:29.175Z,11.5
2022-10-13T06:34:29.126Z,11.5
2022-10-13T06:37:29.133Z,11.5
2022-10-13T06:40:29.135Z,11.5
2022-10-13T06:43:35.912Z,11.5
2022-10-13T06:46:29.151Z,11.5
2022-10-13T06:49:29.155Z,11.5
2022-10-13T06:52:29.163Z,11.5
2022-10-13T06:55:29.172Z,11.5
2022-10-13T06:58:29.194Z,11.5
2022-10-13T07:01:29.320Z,11.5
2022-10-13T07:04:29.184Z,11.5
2022-10-13T07:07:29.187Z,11.5
2022-10-13T07:10:29.193Z,11.5
2022-10-13T07:13:30.361Z,11.5
2022-10-13T07:16:29.208Z,11.5
2022-10-13T07:19:29.235Z,11.5
2022-10-13T07:22:29.221Z,11.5
2022-10-13T07:25:29.319Z,11.5
2022-10-13T07:28:29.294Z,11.5
2022-10-13T07:31:29.234Z,11.5
2022-10-13T07:34:29.243Z,11.5
2022-10-13T07:37:29.274Z,11.5
2022-10-13T07:40:29.248Z,11.5
2022-10-13T07:43:29.285Z,11.5
2022-10-13T07:46:29.820Z,11.5
2022-10-13T07:49:29.256Z,11.5
2022-10-13T07:52:29.265Z,11.5
2022-10-13T07:55:29.401Z,11.5
2022-10-13T07:58:29.299Z,11.4
2022-10-13T08:01:29.274Z,11.4
2022-10-13T08:04:29.278Z,11.4
2022-10-13T08:07:29.275Z,11.4
2022-10-13T08:10:29.286Z,11.4
2022-10-13T08:13:29.314Z,11.4
2022-10-13T08:16:29.289Z,11.4
2022-10-13T08:19:29.296Z,11.4
2022-10-13T08:22:29.355Z,11.4
2022-10-13T08:25:29.307Z,11.4
2022-10-13T08:28:29.407Z,11.4
2022-10-13T08:31:29.651Z,11.4
2022-10-13T08:34:29.306Z,11.4
2022-10-13T08:37:29.316Z,11.4
2022-10-13T08:40:29.313Z,11.4
2022-10-13T08:43:29.320Z,11.4
2022-10-13T08:46:29.310Z,11.4
2022-10-13T08:49:29.340Z,11.4
2022-10-13T08:52:29.320Z,11.4
2022-10-13T08:55:29.321Z,11.4
2022-10-13T08:58:29.332Z,11.4
2022-10-13T09:01:29.345Z,11.4
2022-10-13T09:04:29.322Z,11.4
2022-10-13T09:07:29.360Z,11.4
2022-10-13T09:10:29.347Z,11.4
2022-10-13T09:13:29.363Z,11.4
2022-10-13T09:16:29.360Z,11.4
2022-10-13T09:19:29.368Z,11.4
2022-10-13T09:22:29.372Z,11.4
2022-10-13T09:25:29.544Z,11.4
2022-10-13T09:28:29.473Z,11.4
2022-10-13T09:31:29.399Z,11.4
2022-10-13T09:34:29.408Z,11.4
2022-10-13T09:37:29.423Z,11.4
2022-10-13T09:40:29.484Z,11.4
2022-10-13T09:43:29.472Z,11.4
2022-10-13T09:46:29.441Z,11.4
2022-10-13T09:49:29.449Z,11.4
2022-10-13T09:52:29.462Z,11.4
2022-10-13T09:55:32.306Z,11.4
2022-10-13T09:58:29.503Z,11.4
2022-10-13T10:01:29.536Z,11.4
2022-10-13T10:04:29.551Z,11.4
2022-10-13T10:07:29.505Z,11.4
2022-10-13T10:10:29.516Z,11.4
2022-10-13T10:13:29.537Z,11.4
2022-10-13T10:16:29.537Z,11.4
2022-10-13T10:19:29.566Z,11.4
2022-10-13T10:22:29.558Z,11.4
2022-10-13T10:25:29.566Z,11.4
2022-10-13T10:28:29.680Z,11.4
2022-10-13T10:31:29.580Z,11.4
2022-10-13T10:34:29.594Z,11.4
2022-10-13T10:37:29.646Z,11.4
2022-10-13T10:40:29.606Z,11.4
2022-10-13T10:43:29.641Z,11.4
2022-10-13T10:46:29.621Z,11.4
2022-10-13T10:49:29.636Z,11.4
2022-10-13T10:52:29.643Z,11.4
2022-10-13T10:55:29.678Z,11.4
2022-10-13T10:58:29.687Z,11.4
2022-10-13T11:01:29.720Z,11.4
2022-10-13T11:04:29.691Z,11.4
2022-10-13T11:07:29.701Z,11.4
2022-10-13T11:10:29.712Z,11.4
2022-10-13T11:13:29.781Z,11.4
2022-10-13T11:16:29.732Z,11.4
2022-10-13T11:19:29.742Z,11.4
2022-10-13T11:22:29.749Z,11.4
2022-10-13T11:25:29.762Z,11.4
2022-10-13T11:28:29.824Z,11.4
2022-10-13T11:31:32.127Z,11.4
2022-10-13T11:34:29.788Z,11.4
2022-10-13T11:37:29.799Z,11.4
2022-10-13T11:40:29.806Z,11.4
2022-10-13T11:43:29.826Z,11.4
2022-10-13T11:46:29.829Z,11.5
2022-10-13T11:49:29.873Z,11.5
2022-10-13T11:52:29.844Z,11.5
2022-10-13T11:55:29.863Z,11.5
2022-10-13T11:58:29.898Z,11.5
2022-10-13T12:01:29.888Z,11.5
2022-10-13T12:04:29.901Z,11.5
2022-10-13T12:07:29.939Z,11.5
2022-10-13T12:10:29.925Z,11.5
2022-10-13T12:13:29.944Z,11.5
2022-10-13T12:16:29.940Z,11.5
2022-10-13T12:19:29.971Z,11.5
2022-10-13T12:22:29.974Z,11.5
2022-10-13T12:25:30.125Z,11.5
2022-10-13T12:28:30.026Z,11.5
2022-10-13T12:31:29.996Z,11.5
2022-10-13T12:34:30.010Z,11.5
2022-10-13T12:37:30.057Z,11.5
2022-10-13T12:40:30.094Z,11.6
2022-10-13T12:43:30.170Z,11.6
2022-10-13T12:46:30.077Z,11.6
2022-10-13T12:49:30.086Z,11.6
2022-10-13T12:52:30.091Z,11.6
2022-10-13T12:55:30.103Z,11.6
2022-10-13T12:58:30.152Z,11.6
2022-10-13T13:01:30.148Z,11.6
2022-10-13T13:04:30.136Z,11.6
2022-10-13T13:07:30.138Z,11.6
2022-10-13T13:10:30.163Z,11.6
2022-10-13T13:13:30.176Z,11.6
2022-10-13T13:16:30.176Z,11.6
2022-10-13T13:19:30.207Z,11.6
2022-10-13T13:22:30.238Z,11.6
2022-10-13T13:25:30.214Z,11.6
2022-10-13T13:28:30.284Z,11.6
2022-10-13T13:31:30.237Z,11.6
2022-10-13T13:34:30.242Z,11.6
2022-10-13T13:37:30.279Z,11.6
2022-10-13T13:40:30.267Z,11.6
2022-10-13T13:43:30.287Z,11.6
2022-10-13T13:46:30.290Z,11.6
2022-10-13T13:49:30.305Z,11.7
2022-10-13T13:52:30.313Z,11.7
2022-10-13T13:55:30.352Z,11.7
2022-10-13T13:58:30.345Z,11.7
2022-10-13T14:01:30.370Z,11.7
2022-10-13T14:04:30.353Z,11.7
2022-10-13T14:07:30.356Z,11.7
2022-10-13T14:10:30.360Z,11.7
2022-10-13T14:13:30.397Z,11.7
2022-10-13T14:16:30.370Z,11.7
2022-10-13T14:19:30.531Z,11.7
2022-10-13T14:22:30.377Z,11.7
2022-10-13T14:25:30.375Z,11.8
2022-10-13T14:28:30.438Z,11.8
2022-10-13T14:31:30.411Z,11.8
2022-10-13T14:34:30.385Z,11.8
2022-10-13T14:37:33.144Z,11.8
2022-10-13T14:40:30.387Z,11.8
2022-10-13T14:43:30.403Z,11.8
2022-10-13T14:46:30.390Z,11.8
2022-10-13T14:49:30.420Z,11.8
2022-10-13T14:52:30.395Z,11.8
2022-10-13T14:55:30.396Z,11.8
2022-10-13T14:58:30.406Z,11.8
2022-10-13T15:01:30.401Z,11.8
2022-10-13T15:04:30.399Z,11.8
2022-10-13T15:07:30.437Z,11.8
2022-10-13T15:10:30.417Z,11.8
2022-10-13T15:13:30.429Z,11.8
2022-10-13T15:16:30.414Z,11.8
2022-10-13T15:19:30.419Z,11.8
2022-10-13T15:22:30.421Z,11.8
2022-10-13T15:25:30.451Z,11.8
2022-10-13T15:28:30.509Z,11.8
2022-10-13T15:31:30.429Z,11.8
2022-10-13T15:34:30.430Z,11.8
2022-10-13T15:37:30.431Z,11.9
2022-10-13T15:40:30.429Z,11.9
2022-10-13T15:43:30.466Z,11.9
2022-10-13T15:46:30.431Z,11.9
2022-10-13T15:49:30.429Z,11.9
2022-10-13T15:52:34.597Z,11.9
2022-10-13T15:55:30.436Z,11.9
2022-10-13T15:58:30.460Z,11.9
2022-10-13T16:01:30.462Z,11.9
2022-10-13T16:04:33.545Z,11.9
2022-10-13T16:07:30.439Z,11.9
2022-10-13T16:10:30.443Z,11.9
2022-10-13T16:13:30.448Z,11.9
2022-10-13T16:16:30.444Z,11.9
2022-10-13T16:19:30.473Z,11.9
2022-10-13T16:22:30.446Z,11.9
2022-10-13T16:25:30.446Z,11.9
2022-10-13T16:28:30.497Z,11.9
2022-10-13T16:31:30.452Z,11.9
2022-10-13T16:34:30.459Z,11.9
2022-10-13T16:37:30.484Z,11.9
2022-10-13T16:40:30.456Z,11.9
2022-10-13T16:43:30.466Z,11.9
2022-10-13T16:46:30.455Z,11.9
2022-10-13T16:49:30.456Z,12
2022-10-13T16:52:30.457Z,12
2022-10-13T16:55:30.491Z,12
2022-10-13T16:58:30.471Z,12
2022-10-13T17:01:30.471Z,12
2022-10-13T17:04:30.474Z,12
2022-10-13T17:07:30.474Z,12
2022-10-13T17:10:30.475Z,12
2022-10-13T17:13:30.517Z,12
2022-10-13T17:16:30.475Z,12
2022-10-13T17:19:30.473Z,12
2022-10-13T17:22:30.476Z,12
2022-10-13T17:25:30.479Z,12
2022-10-13T17:28:30.527Z,12
2022-10-13T17:31:30.504Z,12
2022-10-13T17:34:30.487Z,12.1
2022-10-13T17:37:30.488Z,12.1
2022-10-13T17:40:30.491Z,12.1
2022-10-13T17:43:30.504Z,12.1
2022-10-13T17:46:36.640Z,12.1
2022-10-13T17:49:30.538Z,12.1
2022-10-13T17:52:30.502Z,12.1
2022-10-13T17:55:30.508Z,12.1
2022-10-13T17:58:30.517Z,12.1
2022-10-13T18:01:30.563Z,12.1
2022-10-13T18:04:30.513Z,12.1
2022-10-13T18:07:30.536Z,12.1
2022-10-13T18:10:33.941Z,12.1
2022-10-13T18:13:30.527Z,12.1
2022-10-13T18:16:30.520Z,12.1
2022-10-13T18:19:30.525Z,12.1
2022-10-13T18:22:30.520Z,12.1
2022-10-13T18:25:30.542Z,12.1
2022-10-13T18:28:30.587Z,12.1
2022-10-13T18:31:30.527Z,12.1
2022-10-13T18:34:30.527Z,12.1
2022-10-13T18:37:30.531Z,12.1
2022-10-13T18:40:30.544Z,12.1
2022-10-13T18:43:30.577Z,12.1
2022-10-13T18:46:30.536Z,12.1
2022-10-13T18:49:30.547Z,12.1
2022-10-13T18:52:30.542Z,12.1
2022-10-13T18:55:30.552Z,12.1
2022-10-13T18:58:30.564Z,12.1
2022-10-13T19:01:30.581Z,12.1
2022-10-13T19:04:30.554Z,12.1
2022-10-13T19:07:30.559Z,12.1
2022-10-13T19:10:30.566Z,12.1
2022-10-13T19:13:30.583Z,12.1
2022-10-13T19:16:30.562Z,12.1
2022-10-13T19:19:30.594Z,12.1
2022-10-13T19:22:30.583Z,12.1
2022-10-13T19:25:30.573Z,12.1
2022-10-13T19:28:30.596Z,12.1
2022-10-13T19:31:30.593Z,12.2
2022-10-13T19:34:30.582Z,12.1
2022-10-13T19:37:30.606Z,12.2
2022-10-13T19:40:30.582Z,12.1
2022-10-13T19:43:30.723Z,12.1
2022-10-13T19:46:30.588Z,12.2
2022-10-13T19:49:30.593Z,12.2
2022-10-13T19:52:30.591Z,12.2
2022-10-13T19:55:30.621Z,12.2
2022-10-13T19:58:30.608Z,12.2
2022-10-13T20:01:30.603Z,12.2
2022-10-13T20:04:30.604Z,12.2
2022-10-13T20:07:30.609Z,12.2
2022-10-13T20:10:30.609Z,12.2
2022-10-13T20:13:30.664Z,12.2
2022-10-13T20:16:30.656Z,12.2
2022-10-13T20:19:30.622Z,12.2
2022-10-13T20:22:30.634Z,12.2
2022-10-13T20:25:30.640Z,12.2
2022-10-13T20:28:30.687Z,12.2
2022-10-13T20:31:30.668Z,12.2
2022-10-13T20:34:30.644Z,12.2
2022-10-13T20:37:30.652Z,12.2
2022-10-13T20:40:30.658Z,12.2
2022-10-13T20:43:30.675Z,12.2
2022-10-13T20:46:30.665Z,12.2
2022-10-13T20:49:30.687Z,12.2
2022-10-13T20:52:30.666Z,12.2
2022-10-13T20:55:30.669Z,12.2
2022-10-13T20:58:30.684Z,12.2
2022-10-13T21:01:30.678Z,12.2
2022-10-13T21:04:30.689Z,12.2
2022-10-13T21:07:30.706Z,12.2
2022-10-13T21:10:30.692Z,12.2
2022-10-13T21:13:30.715Z,12.2
2022-10-13T21:16:30.694Z,12.2
2022-10-13T21:19:30.697Z,12.2
2022-10-13T21:22:30.699Z,12.2
2022-10-13T21:25:30.726Z,12.2
2022-10-13T21:28:30.767Z,12.2
2022-10-13T21:31:30.734Z,12.2
2022-10-13T21:34:30.719Z,12.2
2022-10-13T21:37:30.726Z,12.2
2022-10-13T21:40:30.724Z,12.2
2022-10-13T21:43:30.761Z,12.2
2022-10-13T21:46:30.738Z,12.2
2022-10-13T21:49:30.740Z,12.2
2022-10-13T21:52:30.743Z,12.2
2022-10-13T21:55:30.749Z,12.2
2022-10-13T21:58:30.767Z,12.2
2022-10-13T22:01:30.782Z,12.2
2022-10-13T22:04:30.758Z,12.2
2022-10-13T22:07:30.760Z,12.2
2022-10-13T22:10:30.765Z,12.2
2022-10-13T22:13:30.795Z,12.2
2022-10-13T22:16:30.783Z,12.2
2022-10-13T22:19:30.800Z,12.2
2022-10-13T22:22:31.116Z,12.2
2022-10-13T22:25:30.786Z,12.2
2022-10-13T22:28:34.835Z,12.2
2022-10-13T22:31:30.797Z,12.2
2022-10-13T22:34:30.795Z,12.2
2022-10-13T22:37:30.829Z,12.2
2022-10-13T22:40:30.805Z,12.2
2022-10-13T22:43:30.814Z,12.2
2022-10-13T22:46:30.810Z,12.2
2022-10-13T22:49:30.811Z,12.2
2022-10-13T22:52:30.814Z,12.2
2022-10-13T22:55:30.834Z,12.2
2022-10-13T22:58:30.815Z,12.2
2022-10-13T23:01:30.809Z,12.2
2022-10-13T23:04:30.810Z,12.2
2022-10-13T23:07:30.812Z,12.2
2022-10-13T23:10:30.812Z,12.2
2022-10-13T23:13:30.846Z,12.2
2022-10-13T23:16:30.817Z,12.2
2022-10-13T23:19:30.908Z,12.2
2022-10-13T23:22:30.815Z,12.2
2022-10-13T23:25:30.817Z,12.2
2022-10-13T23:28:30.878Z,12.2
2022-10-13T23:31:30.836Z,12.2
2022-10-13T23:34:30.819Z,12.2
2022-10-13T23:37:30.811Z,12.2
2022-10-13T23:40:30.814Z,12.2
2022-10-13T23:43:30.835Z,12.2
2022-10-13T23:46:30.820Z,12.2
2022-10-13T23:49:30.854Z,12.2
2022-10-13T23:52:30.833Z,12.2
2022-10-13T23:55:30.841Z,12.2
2022-10-13T23:58:30.987Z,12.2
